sensor_id;sensor_type;location;lat;lon;timestamp;temperature;humidity
15156;DHT22;7678;50.058;8.306;2023-05-02T00:00:41;12.70;99.90
15156;DHT22;7678;50.058;8.306;2023-05-02T00:03:11;12.70;99.90
15156;DHT22;7678;50.058;8.306;2023-05-02T00:05:41;12.60;99.90
15156;DHT22;7678;50.058;8.306;2023-05-02T00:08:10;12.60;99.90
15156;DHT22;7678;50.058;8.306;2023-05-02T00:10:38;12.50;99.90
15156;DHT22;7678;50.058;8.306;2023-05-02T00:13:08;12.30;99.90
15156;DHT22;7678;50.058;8.306;2023-05-02T00:15:37;12.40;99.90
15156;DHT22;7678;50.058;8.306;2023-05-02T00:18:06;12.30;99.90
15156;DHT22;7678;50.058;8.306;2023-05-02T00:20:39;12.30;99.90
15156;DHT22;7678;50.058;8.306;2023-05-02T00:23:07;12.20;99.90
15156;DHT22;7678;50.058;8.306;2023-05-02T00:25:43;12.20;99.90
15156;DHT22;7678;50.058;8.306;2023-05-02T00:28:14;12.20;99.90
15156;DHT22;7678;50.058;8.306;2023-05-02T00:30:43;12.10;99.90
15156;DHT22;7678;50.058;8.306;2023-05-02T00:33:12;12.00;99.90
15156;DHT22;7678;50.058;8.306;2023-05-02T00:35:42;12.00;99.90
15156;DHT22;7678;50.058;8.306;2023-05-02T00:38:11;11.90;99.90
15156;DHT22;7678;50.058;8.306;2023-05-02T00:40:43;11.80;99.90
15156;DHT22;7678;50.058;8.306;2023-05-02T00:43:14;11.80;99.90
15156;DHT22;7678;50.058;8.306;2023-05-02T00:45:49;11.80;99.90
15156;DHT22;7678;50.058;8.306;2023-05-02T00:48:25;11.80;99.90
15156;DHT22;7678;50.058;8.306;2023-05-02T00:50:53;11.70;99.90
15156;DHT22;7678;50.058;8.306;2023-05-02T00:53:23;11.70;99.90
15156;DHT22;7678;50.058;8.306;2023-05-02T00:55:55;11.60;99.90
15156;DHT22;7678;50.058;8.306;2023-05-02T00:58:29;11.60;99.90
15156;DHT22;7678;50.058;8.306;2023-05-02T01:01:10;11.40;99.90
15156;DHT22;7678;50.058;8.306;2023-05-02T01:03:52;11.40;99.90
15156;DHT22;7678;50.058;8.306;2023-05-02T01:06:30;11.60;99.90
15156;DHT22;7678;50.058;8.306;2023-05-02T01:09:18;11.70;99.90
15156;DHT22;7678;50.058;8.306;2023-05-02T01:11:56;11.70;99.90
15156;DHT22;7678;50.058;8.306;2023-05-02T01:14:41;11.70;99.90
15156;DHT22;7678;50.058;8.306;2023-05-02T01:17:14;11.60;99.90
15156;DHT22;7678;50.058;8.306;2023-05-02T01:19:53;11.60;99.90
15156;DHT22;7678;50.058;8.306;2023-05-02T01:22:26;11.60;99.90
15156;DHT22;7678;50.058;8.306;2023-05-02T01:25:03;11.60;99.90
15156;DHT22;7678;50.058;8.306;2023-05-02T01:27:53;11.60;99.90
15156;DHT22;7678;50.058;8.306;2023-05-02T01:30:31;11.70;99.90
15156;DHT22;7678;50.058;8.306;2023-05-02T01:33:01;11.70;99.90
15156;DHT22;7678;50.058;8.306;2023-05-02T01:35:32;11.80;99.90
15156;DHT22;7678;50.058;8.306;2023-05-02T01:38:02;11.90;99.90
15156;DHT22;7678;50.058;8.306;2023-05-02T01:40:36;11.90;99.90
15156;DHT22;7678;50.058;8.306;2023-05-02T01:43:09;11.90;99.90
15156;DHT22;7678;50.058;8.306;2023-05-02T01:45:48;11.90;99.90
15156;DHT22;7678;50.058;8.306;2023-05-02T01:48:18;11.90;99.90
15156;DHT22;7678;50.058;8.306;2023-05-02T01:50:48;11.90;99.90
15156;DHT22;7678;50.058;8.306;2023-05-02T01:53:20;11.90;99.90
15156;DHT22;7678;50.058;8.306;2023-05-02T01:55:50;11.90;99.90
15156;DHT22;7678;50.058;8.306;2023-05-02T01:58:21;11.90;99.90
15156;DHT22;7678;50.058;8.306;2023-05-02T02:00:52;11.90;99.90
15156;DHT22;7678;50.058;8.306;2023-05-02T02:03:21;11.80;99.90
15156;DHT22;7678;50.058;8.306;2023-05-02T02:05:52;11.80;99.90
15156;DHT22;7678;50.058;8.306;2023-05-02T02:08:27;11.70;99.90
15156;DHT22;7678;50.058;8.306;2023-05-02T02:10:59;11.60;99.90
15156;DHT22;7678;50.058;8.306;2023-05-02T02:13:38;11.50;99.90
15156;DHT22;7678;50.058;8.306;2023-05-02T02:16:12;11.50;99.90
15156;DHT22;7678;50.058;8.306;2023-05-02T02:18:43;11.40;99.90
15156;DHT22;7678;50.058;8.306;2023-05-02T02:21:21;11.20;99.90
15156;DHT22;7678;50.058;8.306;2023-05-02T02:23:55;11.20;99.90
15156;DHT22;7678;50.058;8.306;2023-05-02T02:26:27;11.20;99.90
15156;DHT22;7678;50.058;8.306;2023-05-02T02:28:55;11.20;99.90
15156;DHT22;7678;50.058;8.306;2023-05-02T02:31:29;11.10;99.90
15156;DHT22;7678;50.058;8.306;2023-05-02T02:33:58;11.00;99.90
15156;DHT22;7678;50.058;8.306;2023-05-02T02:36:32;10.80;99.90
15156;DHT22;7678;50.058;8.306;2023-05-02T02:39:17;10.80;99.90
15156;DHT22;7678;50.058;8.306;2023-05-02T02:41:55;10.80;99.90
15156;DHT22;7678;50.058;8.306;2023-05-02T02:44:40;10.80;99.90
15156;DHT22;7678;50.058;8.306;2023-05-02T02:47:18;10.80;99.90
15156;DHT22;7678;50.058;8.306;2023-05-02T02:49:50;10.80;99.90
15156;DHT22;7678;50.058;8.306;2023-05-02T02:52:30;10.80;99.90
15156;DHT22;7678;50.058;8.306;2023-05-02T02:55:07;10.70;99.90
15156;DHT22;7678;50.058;8.306;2023-05-02T02:57:43;10.70;99.90
15156;DHT22;7678;50.058;8.306;2023-05-02T03:00:18;10.70;99.90
15156;DHT22;7678;50.058;8.306;2023-05-02T03:02:51;10.60;99.90
15156;DHT22;7678;50.058;8.306;2023-05-02T03:05:21;10.60;99.90
15156;DHT22;7678;50.058;8.306;2023-05-02T03:07:53;10.60;99.90
15156;DHT22;7678;50.058;8.306;2023-05-02T03:10:22;10.60;99.90
15156;DHT22;7678;50.058;8.306;2023-05-02T03:12:50;10.60;99.90
15156;DHT22;7678;50.058;8.306;2023-05-02T03:15:31;10.50;99.90
15156;DHT22;7678;50.058;8.306;2023-05-02T03:18:08;10.30;99.90
15156;DHT22;7678;50.058;8.306;2023-05-02T03:20:37;10.20;99.90
15156;DHT22;7678;50.058;8.306;2023-05-02T03:23:05;10.10;99.90
15156;DHT22;7678;50.058;8.306;2023-05-02T03:25:34;10.00;99.90
15156;DHT22;7678;50.058;8.306;2023-05-02T03:28:02;10.10;99.90
15156;DHT22;7678;50.058;8.306;2023-05-02T03:30:34;10.10;99.90
15156;DHT22;7678;50.058;8.306;2023-05-02T03:33:07;10.20;99.90
15156;DHT22;7678;50.058;8.306;2023-05-02T03:35:36;10.20;99.90
15156;DHT22;7678;50.058;8.306;2023-05-02T03:38:04;10.20;99.90
15156;DHT22;7678;50.058;8.306;2023-05-02T03:40:34;10.30;99.90
15156;DHT22;7678;50.058;8.306;2023-05-02T03:43:02;10.30;99.90
15156;DHT22;7678;50.058;8.306;2023-05-02T03:45:33;10.40;99.90
15156;DHT22;7678;50.058;8.306;2023-05-02T03:48:02;10.40;99.90
15156;DHT22;7678;50.058;8.306;2023-05-02T03:50:32;10.40;99.90
15156;DHT22;7678;50.058;8.306;2023-05-02T03:53:00;10.50;99.90
15156;DHT22;7678;50.058;8.306;2023-05-02T03:55:28;10.60;99.90
15156;DHT22;7678;50.058;8.306;2023-05-02T03:57:57;10.50;99.90
15156;DHT22;7678;50.058;8.306;2023-05-02T04:00:26;10.50;99.90
15156;DHT22;7678;50.058;8.306;2023-05-02T04:02:54;10.50;99.90
15156;DHT22;7678;50.058;8.306;2023-05-02T04:05:24;10.60;99.90
15156;DHT22;7678;50.058;8.306;2023-05-02T04:07:56;10.60;99.90
15156;DHT22;7678;50.058;8.306;2023-05-02T04:10:24;10.70;99.90
15156;DHT22;7678;50.058;8.306;2023-05-02T04:12:52;10.60;99.90
15156;DHT22;7678;50.058;8.306;2023-05-02T04:15:21;10.60;99.90
15156;DHT22;7678;50.058;8.306;2023-05-02T04:17:50;10.70;99.90
15156;DHT22;7678;50.058;8.306;2023-05-02T04:20:18;10.60;99.90
15156;DHT22;7678;50.058;8.306;2023-05-02T04:22:46;10.60;99.90
15156;DHT22;7678;50.058;8.306;2023-05-02T04:25:18;10.60;99.90
15156;DHT22;7678;50.058;8.306;2023-05-02T04:27:49;10.60;99.90
15156;DHT22;7678;50.058;8.306;2023-05-02T04:30:17;10.70;99.90
15156;DHT22;7678;50.058;8.306;2023-05-02T04:32:46;10.80;99.90
15156;DHT22;7678;50.058;8.306;2023-05-02T04:35:14;10.80;99.90
15156;DHT22;7678;50.058;8.306;2023-05-02T04:37:44;10.80;99.90
15156;DHT22;7678;50.058;8.306;2023-05-02T04:40:13;10.80;99.90
15156;DHT22;7678;50.058;8.306;2023-05-02T04:42:42;10.90;99.90
15156;DHT22;7678;50.058;8.306;2023-05-02T04:45:12;10.90;99.90
15156;DHT22;7678;50.058;8.306;2023-05-02T04:47:40;10.90;99.90
15156;DHT22;7678;50.058;8.306;2023-05-02T04:50:09;10.90;99.90
15156;DHT22;7678;50.058;8.306;2023-05-02T04:52:37;10.90;99.90
15156;DHT22;7678;50.058;8.306;2023-05-02T04:55:06;11.00;99.90
15156;DHT22;7678;50.058;8.306;2023-05-02T04:57:35;11.20;99.90
15156;DHT22;7678;50.058;8.306;2023-05-02T05:00:05;11.20;99.90
15156;DHT22;7678;50.058;8.306;2023-05-02T05:02:33;11.20;99.90
15156;DHT22;7678;50.058;8.306;2023-05-02T05:05:02;11.20;99.90
15156;DHT22;7678;50.058;8.306;2023-05-02T05:07:30;11.30;99.90
15156;DHT22;7678;50.058;8.306;2023-05-02T05:09:59;11.30;99.90
15156;DHT22;7678;50.058;8.306;2023-05-02T05:12:28;11.30;99.90
15156;DHT22;7678;50.058;8.306;2023-05-02T05:14:57;11.30;99.90
15156;DHT22;7678;50.058;8.306;2023-05-02T05:17:27;11.30;99.90
15156;DHT22;7678;50.058;8.306;2023-05-02T05:19:57;11.40;99.90
15156;DHT22;7678;50.058;8.306;2023-05-02T05:22:26;11.40;99.90
15156;DHT22;7678;50.058;8.306;2023-05-02T05:24:55;11.40;99.90
15156;DHT22;7678;50.058;8.306;2023-05-02T05:27:23;11.40;99.90
15156;DHT22;7678;50.058;8.306;2023-05-02T05:29:52;11.40;99.90
15156;DHT22;7678;50.058;8.306;2023-05-02T05:32:20;11.40;99.90
15156;DHT22;7678;50.058;8.306;2023-05-02T05:34:54;11.40;99.90
15156;DHT22;7678;50.058;8.306;2023-05-02T05:37:22;11.40;99.90
15156;DHT22;7678;50.058;8.306;2023-05-02T05:39:50;11.40;99.90
15156;DHT22;7678;50.058;8.306;2023-05-02T05:42:20;11.40;99.90
15156;DHT22;7678;50.058;8.306;2023-05-02T05:44:51;11.40;99.90
15156;DHT22;7678;50.058;8.306;2023-05-02T05:47:20;11.60;99.90
15156;DHT22;7678;50.058;8.306;2023-05-02T05:49:53;11.60;99.90
15156;DHT22;7678;50.058;8.306;2023-05-02T05:52:22;11.80;99.90
15156;DHT22;7678;50.058;8.306;2023-05-02T05:54:58;11.90;99.90
15156;DHT22;7678;50.058;8.306;2023-05-02T05:57:26;12.00;99.90
15156;DHT22;7678;50.058;8.306;2023-05-02T05:59:55;12.10;99.90
15156;DHT22;7678;50.058;8.306;2023-05-02T06:02:24;12.10;99.90
15156;DHT22;7678;50.058;8.306;2023-05-02T06:04:54;12.20;99.90
15156;DHT22;7678;50.058;8.306;2023-05-02T06:07:23;12.10;99.90
15156;DHT22;7678;50.058;8.306;2023-05-02T06:09:54;12.10;99.90
15156;DHT22;7678;50.058;8.306;2023-05-02T06:12:22;12.00;99.90
15156;DHT22;7678;50.058;8.306;2023-05-02T06:14:50;12.10;99.90
15156;DHT22;7678;50.058;8.306;2023-05-02T06:17:18;12.10;99.90
15156;DHT22;7678;50.058;8.306;2023-05-02T06:19:46;12.10;99.90
15156;DHT22;7678;50.058;8.306;2023-05-02T06:22:19;12.20;99.90
15156;DHT22;7678;50.058;8.306;2023-05-02T06:24:47;12.20;99.90
15156;DHT22;7678;50.058;8.306;2023-05-02T06:27:15;12.20;99.90
15156;DHT22;7678;50.058;8.306;2023-05-02T06:29:43;12.40;99.90
15156;DHT22;7678;50.058;8.306;2023-05-02T06:32:11;12.40;99.90
15156;DHT22;7678;50.058;8.306;2023-05-02T06:34:39;12.40;99.90
15156;DHT22;7678;50.058;8.306;2023-05-02T06:37:07;12.40;99.90
15156;DHT22;7678;50.058;8.306;2023-05-02T06:39:37;12.60;99.90
15156;DHT22;7678;50.058;8.306;2023-05-02T06:42:05;12.80;99.90
15156;DHT22;7678;50.058;8.306;2023-05-02T06:44:33;13.00;99.90
15156;DHT22;7678;50.058;8.306;2023-05-02T06:47:03;13.00;99.90
15156;DHT22;7678;50.058;8.306;2023-05-02T06:49:32;13.10;99.90
15156;DHT22;7678;50.058;8.306;2023-05-02T06:52:00;13.10;99.90
15156;DHT22;7678;50.058;8.306;2023-05-02T06:54:28;13.00;99.90
15156;DHT22;7678;50.058;8.306;2023-05-02T06:56:58;13.00;99.90
15156;DHT22;7678;50.058;8.306;2023-05-02T06:59:26;12.90;99.90
15156;DHT22;7678;50.058;8.306;2023-05-02T07:01:55;12.80;99.90
15156;DHT22;7678;50.058;8.306;2023-05-02T07:04:23;12.90;99.90
15156;DHT22;7678;50.058;8.306;2023-05-02T07:06:52;12.80;99.90
15156;DHT22;7678;50.058;8.306;2023-05-02T07:09:21;12.80;99.90
15156;DHT22;7678;50.058;8.306;2023-05-02T07:11:49;13.00;99.90
15156;DHT22;7678;50.058;8.306;2023-05-02T07:14:18;13.00;99.90
15156;DHT22;7678;50.058;8.306;2023-05-02T07:16:47;12.90;99.90
15156;DHT22;7678;50.058;8.306;2023-05-02T07:19:15;12.90;99.90
15156;DHT22;7678;50.058;8.306;2023-05-02T07:21:43;13.10;99.90
15156;DHT22;7678;50.058;8.306;2023-05-02T07:24:12;13.10;99.90
15156;DHT22;7678;50.058;8.306;2023-05-02T07:26:43;13.00;99.90
15156;DHT22;7678;50.058;8.306;2023-05-02T07:29:11;13.30;99.90
15156;DHT22;7678;50.058;8.306;2023-05-02T07:31:41;13.40;99.90
15156;DHT22;7678;50.058;8.306;2023-05-02T07:34:09;13.40;99.90
15156;DHT22;7678;50.058;8.306;2023-05-02T07:36:38;13.40;99.90
15156;DHT22;7678;50.058;8.306;2023-05-02T07:39:06;13.20;99.90
15156;DHT22;7678;50.058;8.306;2023-05-02T07:41:34;13.20;99.90
15156;DHT22;7678;50.058;8.306;2023-05-02T07:44:03;13.20;99.90
15156;DHT22;7678;50.058;8.306;2023-05-02T07:46:31;13.20;99.90
15156;DHT22;7678;50.058;8.306;2023-05-02T07:49:00;13.30;99.90
15156;DHT22;7678;50.058;8.306;2023-05-02T07:51:28;13.00;99.90
15156;DHT22;7678;50.058;8.306;2023-05-02T07:53:57;12.90;99.90
15156;DHT22;7678;50.058;8.306;2023-05-02T07:56:25;12.90;99.90
15156;DHT22;7678;50.058;8.306;2023-05-02T07:58:54;12.70;99.90
15156;DHT22;7678;50.058;8.306;2023-05-02T08:01:22;12.90;99.90
15156;DHT22;7678;50.058;8.306;2023-05-02T08:03:50;12.70;99.90
15156;DHT22;7678;50.058;8.306;2023-05-02T08:06:20;12.70;99.90
15156;DHT22;7678;50.058;8.306;2023-05-02T08:08:48;12.60;99.90
15156;DHT22;7678;50.058;8.306;2023-05-02T08:11:17;12.60;99.90
15156;DHT22;7678;50.058;8.306;2023-05-02T08:13:48;12.50;99.90
15156;DHT22;7678;50.058;8.306;2023-05-02T08:16:20;12.70;99.90
15156;DHT22;7678;50.058;8.306;2023-05-02T08:18:49;12.60;99.90
15156;DHT22;7678;50.058;8.306;2023-05-02T08:21:20;12.80;99.90
15156;DHT22;7678;50.058;8.306;2023-05-02T08:23:50;12.80;99.90
15156;DHT22;7678;50.058;8.306;2023-05-02T08:26:18;12.70;99.90
15156;DHT22;7678;50.058;8.306;2023-05-02T08:28:47;12.80;99.90
15156;DHT22;7678;50.058;8.306;2023-05-02T08:31:17;12.90;99.90
15156;DHT22;7678;50.058;8.306;2023-05-02T08:33:45;13.40;99.90
15156;DHT22;7678;50.058;8.306;2023-05-02T08:36:15;13.50;99.90
15156;DHT22;7678;50.058;8.306;2023-05-02T08:38:46;13.50;99.90
15156;DHT22;7678;50.058;8.306;2023-05-02T08:41:23;13.40;99.90
15156;DHT22;7678;50.058;8.306;2023-05-02T08:43:53;13.00;99.90
15156;DHT22;7678;50.058;8.306;2023-05-02T08:46:28;13.10;99.90
15156;DHT22;7678;50.058;8.306;2023-05-02T08:48:59;13.30;99.90
15156;DHT22;7678;50.058;8.306;2023-05-02T08:51:29;13.60;99.90
15156;DHT22;7678;50.058;8.306;2023-05-02T08:54:02;13.60;99.90
15156;DHT22;7678;50.058;8.306;2023-05-02T08:56:31;13.80;99.90
15156;DHT22;7678;50.058;8.306;2023-05-02T08:59:00;13.90;99.90
15156;DHT22;7678;50.058;8.306;2023-05-02T09:01:30;14.20;99.90
15156;DHT22;7678;50.058;8.306;2023-05-02T09:03:58;14.20;99.90
15156;DHT22;7678;50.058;8.306;2023-05-02T09:06:26;14.00;99.90
15156;DHT22;7678;50.058;8.306;2023-05-02T09:08:59;13.70;99.90
15156;DHT22;7678;50.058;8.306;2023-05-02T09:11:35;13.80;99.90
15156;DHT22;7678;50.058;8.306;2023-05-02T09:14:13;13.90;99.90
15156;DHT22;7678;50.058;8.306;2023-05-02T09:16:42;13.80;99.90
15156;DHT22;7678;50.058;8.306;2023-05-02T09:19:23;13.80;99.90
15156;DHT22;7678;50.058;8.306;2023-05-02T09:21:59;14.00;99.90
15156;DHT22;7678;50.058;8.306;2023-05-02T09:24:28;14.30;99.90
15156;DHT22;7678;50.058;8.306;2023-05-02T09:27:02;14.30;99.90
15156;DHT22;7678;50.058;8.306;2023-05-02T09:29:33;14.30;99.90
15156;DHT22;7678;50.058;8.306;2023-05-02T09:32:05;14.30;99.90
15156;DHT22;7678;50.058;8.306;2023-05-02T09:34:37;14.50;99.90
15156;DHT22;7678;50.058;8.306;2023-05-02T09:37:08;14.40;99.90
15156;DHT22;7678;50.058;8.306;2023-05-02T09:39:37;14.30;99.90
15156;DHT22;7678;50.058;8.306;2023-05-02T09:42:07;14.40;99.90
15156;DHT22;7678;50.058;8.306;2023-05-02T09:44:37;14.10;99.90
15156;DHT22;7678;50.058;8.306;2023-05-02T09:47:24;14.20;99.90
15156;DHT22;7678;50.058;8.306;2023-05-02T09:49:56;14.40;99.90
15156;DHT22;7678;50.058;8.306;2023-05-02T09:52:26;14.60;99.90
15156;DHT22;7678;50.058;8.306;2023-05-02T09:54:54;14.30;99.90
15156;DHT22;7678;50.058;8.306;2023-05-02T09:57:38;14.30;99.90
15156;DHT22;7678;50.058;8.306;2023-05-02T10:00:08;14.40;99.90
15156;DHT22;7678;50.058;8.306;2023-05-02T10:02:47;14.30;99.90
15156;DHT22;7678;50.058;8.306;2023-05-02T10:05:18;14.70;99.90
15156;DHT22;7678;50.058;8.306;2023-05-02T10:07:53;14.40;99.90
15156;DHT22;7678;50.058;8.306;2023-05-02T10:10:22;14.60;99.90
15156;DHT22;7678;50.058;8.306;2023-05-02T10:12:56;15.00;99.90
15156;DHT22;7678;50.058;8.306;2023-05-02T10:15:26;15.30;99.90
15156;DHT22;7678;50.058;8.306;2023-05-02T10:17:58;15.60;99.90
15156;DHT22;7678;50.058;8.306;2023-05-02T10:20:31;15.90;99.90
15156;DHT22;7678;50.058;8.306;2023-05-02T10:23:04;15.60;99.90
15156;DHT22;7678;50.058;8.306;2023-05-02T10:25:34;15.60;99.90
15156;DHT22;7678;50.058;8.306;2023-05-02T10:28:05;15.40;99.90
15156;DHT22;7678;50.058;8.306;2023-05-02T10:30:38;15.30;99.90
15156;DHT22;7678;50.058;8.306;2023-05-02T10:33:07;15.10;98.90
15156;DHT22;7678;50.058;8.306;2023-05-02T10:35:41;15.20;99.90
15156;DHT22;7678;50.058;8.306;2023-05-02T10:38:18;15.20;99.30
15156;DHT22;7678;50.058;8.306;2023-05-02T10:40:53;15.20;99.70
15156;DHT22;7678;50.058;8.306;2023-05-02T10:43:27;15.40;99.90
15156;DHT22;7678;50.058;8.306;2023-05-02T10:45:57;15.50;99.90
15156;DHT22;7678;50.058;8.306;2023-05-02T10:48:26;15.50;99.80
15156;DHT22;7678;50.058;8.306;2023-05-02T10:50:56;15.90;99.90
15156;DHT22;7678;50.058;8.306;2023-05-02T10:53:27;15.80;99.50
15156;DHT22;7678;50.058;8.306;2023-05-02T10:56:16;16.00;99.90
15156;DHT22;7678;50.058;8.306;2023-05-02T10:58:49;16.40;97.30
15156;DHT22;7678;50.058;8.306;2023-05-02T11:01:33;16.80;97.90
15156;DHT22;7678;50.058;8.306;2023-05-02T11:04:05;16.60;97.20
15156;DHT22;7678;50.058;8.306;2023-05-02T11:06:34;16.70;97.70
15156;DHT22;7678;50.058;8.306;2023-05-02T11:09:31;17.40;94.80
15156;DHT22;7678;50.058;8.306;2023-05-02T11:12:03;17.80;92.10
15156;DHT22;7678;50.058;8.306;2023-05-02T11:14:46;17.70;93.00
15156;DHT22;7678;50.058;8.306;2023-05-02T11:17:16;17.40;92.40
15156;DHT22;7678;50.058;8.306;2023-05-02T11:22:53;17.90;88.30
15156;DHT22;7678;50.058;8.306;2023-05-02T11:25:36;18.10;90.40
15156;DHT22;7678;50.058;8.306;2023-05-02T11:28:06;18.20;82.00
15156;DHT22;7678;50.058;8.306;2023-05-02T11:30:39;17.90;77.60
15156;DHT22;7678;50.058;8.306;2023-05-02T11:33:15;17.40;81.90
15156;DHT22;7678;50.058;8.306;2023-05-02T11:35:47;16.90;85.30
15156;DHT22;7678;50.058;8.306;2023-05-02T11:38:19;16.60;90.90
15156;DHT22;7678;50.058;8.306;2023-05-02T11:40:56;16.70;88.80
15156;DHT22;7678;50.058;8.306;2023-05-02T11:43:27;16.80;86.40
15156;DHT22;7678;50.058;8.306;2023-05-02T11:46:00;16.20;91.80
15156;DHT22;7678;50.058;8.306;2023-05-02T11:48:29;15.60;97.90
15156;DHT22;7678;50.058;8.306;2023-05-02T11:50:59;15.50;99.80
15156;DHT22;7678;50.058;8.306;2023-05-02T11:53:31;15.20;99.90
15156;DHT22;7678;50.058;8.306;2023-05-02T11:56:01;15.20;99.90
15156;DHT22;7678;50.058;8.306;2023-05-02T11:58:33;15.10;99.90
15156;DHT22;7678;50.058;8.306;2023-05-02T12:01:14;15.40;99.90
15156;DHT22;7678;50.058;8.306;2023-05-02T12:03:43;15.70;99.60
15156;DHT22;7678;50.058;8.306;2023-05-02T12:06:12;15.60;98.10
15156;DHT22;7678;50.058;8.306;2023-05-02T12:08:43;15.70;97.40
15156;DHT22;7678;50.058;8.306;2023-05-02T12:11:13;16.00;95.40
15156;DHT22;7678;50.058;8.306;2023-05-02T12:13:47;16.70;90.30
15156;DHT22;7678;50.058;8.306;2023-05-02T12:16:18;16.90;89.30
15156;DHT22;7678;50.058;8.306;2023-05-02T12:18:47;16.90;81.00
15156;DHT22;7678;50.058;8.306;2023-05-02T12:21:19;17.00;80.20
15156;DHT22;7678;50.058;8.306;2023-05-02T12:23:47;16.60;73.50
15156;DHT22;7678;50.058;8.306;2023-05-02T12:26:17;16.60;75.30
15156;DHT22;7678;50.058;8.306;2023-05-02T12:28:48;16.50;83.40
15156;DHT22;7678;50.058;8.306;2023-05-02T12:31:19;16.60;86.10
15156;DHT22;7678;50.058;8.306;2023-05-02T12:33:47;16.30;83.70
15156;DHT22;7678;50.058;8.306;2023-05-02T12:36:19;16.10;83.70
15156;DHT22;7678;50.058;8.306;2023-05-02T12:38:48;16.20;89.40
15156;DHT22;7678;50.058;8.306;2023-05-02T12:41:30;16.70;90.80
15156;DHT22;7678;50.058;8.306;2023-05-02T12:43:59;17.10;91.60
15156;DHT22;7678;50.058;8.306;2023-05-02T12:46:32;17.00;91.00
15156;DHT22;7678;50.058;8.306;2023-05-02T12:49:01;16.70;94.10
15156;DHT22;7678;50.058;8.306;2023-05-02T12:51:29;17.10;91.50
15156;DHT22;7678;50.058;8.306;2023-05-02T12:53:58;17.00;93.30
15156;DHT22;7678;50.058;8.306;2023-05-02T12:56:37;16.90;94.80
15156;DHT22;7678;50.058;8.306;2023-05-02T12:59:09;16.80;95.30
15156;DHT22;7678;50.058;8.306;2023-05-02T13:01:53;16.80;95.20
15156;DHT22;7678;50.058;8.306;2023-05-02T13:04:21;16.60;94.40
15156;DHT22;7678;50.058;8.306;2023-05-02T13:06:49;16.40;95.50
15156;DHT22;7678;50.058;8.306;2023-05-02T13:09:17;16.40;96.10
15156;DHT22;7678;50.058;8.306;2023-05-02T13:11:46;16.40;96.30
15156;DHT22;7678;50.058;8.306;2023-05-02T13:14:14;16.10;96.30
15156;DHT22;7678;50.058;8.306;2023-05-02T13:16:42;16.50;96.20
15156;DHT22;7678;50.058;8.306;2023-05-02T13:19:13;17.00;95.70
15156;DHT22;7678;50.058;8.306;2023-05-02T13:21:41;17.10;94.00
15156;DHT22;7678;50.058;8.306;2023-05-02T13:24:10;17.20;92.40
15156;DHT22;7678;50.058;8.306;2023-05-02T13:26:40;17.20;90.60
15156;DHT22;7678;50.058;8.306;2023-05-02T13:29:09;17.10;90.60
15156;DHT22;7678;50.058;8.306;2023-05-02T13:31:38;17.20;90.30
15156;DHT22;7678;50.058;8.306;2023-05-02T13:34:07;17.10;92.10
15156;DHT22;7678;50.058;8.306;2023-05-02T13:36:39;17.40;87.30
15156;DHT22;7678;50.058;8.306;2023-05-02T13:39:12;17.20;86.40
15156;DHT22;7678;50.058;8.306;2023-05-02T13:41:40;17.20;90.80
15156;DHT22;7678;50.058;8.306;2023-05-02T13:44:11;17.20;90.70
15156;DHT22;7678;50.058;8.306;2023-05-02T13:46:44;17.30;90.40
15156;DHT22;7678;50.058;8.306;2023-05-02T13:49:12;16.70;90.30
15156;DHT22;7678;50.058;8.306;2023-05-02T13:51:43;16.80;92.20
15156;DHT22;7678;50.058;8.306;2023-05-02T13:54:14;16.90;90.00
15156;DHT22;7678;50.058;8.306;2023-05-02T13:56:43;17.10;85.90
15156;DHT22;7678;50.058;8.306;2023-05-02T13:59:17;16.50;87.10
15156;DHT22;7678;50.058;8.306;2023-05-02T14:01:46;16.80;85.70
15156;DHT22;7678;50.058;8.306;2023-05-02T14:04:14;17.10;83.20
15156;DHT22;7678;50.058;8.306;2023-05-02T14:06:44;17.20;81.60
15156;DHT22;7678;50.058;8.306;2023-05-02T14:09:12;17.30;81.80
15156;DHT22;7678;50.058;8.306;2023-05-02T14:11:42;17.50;81.10
15156;DHT22;7678;50.058;8.306;2023-05-02T14:19:37;17.70;76.80
15156;DHT22;7678;50.058;8.306;2023-05-02T14:24:41;17.80;70.20
15156;DHT22;7678;50.058;8.306;2023-05-02T14:27:09;17.40;71.40
15156;DHT22;7678;50.058;8.306;2023-05-02T14:29:38;17.60;71.90
15156;DHT22;7678;50.058;8.306;2023-05-02T14:32:06;17.60;73.50
15156;DHT22;7678;50.058;8.306;2023-05-02T14:34:34;17.60;73.20
15156;DHT22;7678;50.058;8.306;2023-05-02T14:37:03;17.90;73.20
15156;DHT22;7678;50.058;8.306;2023-05-02T14:39:31;18.30;72.60
15156;DHT22;7678;50.058;8.306;2023-05-02T14:42:05;18.20;67.80
15156;DHT22;7678;50.058;8.306;2023-05-02T14:44:33;18.20;68.00
15156;DHT22;7678;50.058;8.306;2023-05-02T14:47:01;18.30;67.60
15156;DHT22;7678;50.058;8.306;2023-05-02T14:49:29;17.70;70.30
15156;DHT22;7678;50.058;8.306;2023-05-02T14:51:57;17.50;69.40
15156;DHT22;7678;50.058;8.306;2023-05-02T14:54:26;17.70;70.30
15156;DHT22;7678;50.058;8.306;2023-05-02T14:57:00;17.90;69.90
15156;DHT22;7678;50.058;8.306;2023-05-02T14:59:31;17.80;65.60
15156;DHT22;7678;50.058;8.306;2023-05-02T15:02:01;18.00;66.10
15156;DHT22;7678;50.058;8.306;2023-05-02T15:04:30;18.20;67.10
15156;DHT22;7678;50.058;8.306;2023-05-02T15:06:59;18.00;67.00
15156;DHT22;7678;50.058;8.306;2023-05-02T15:09:27;18.20;67.50
15156;DHT22;7678;50.058;8.306;2023-05-02T15:11:56;17.80;63.40
15156;DHT22;7678;50.058;8.306;2023-05-02T15:14:24;17.20;63.80
15156;DHT22;7678;50.058;8.306;2023-05-02T15:16:53;17.50;64.00
15156;DHT22;7678;50.058;8.306;2023-05-02T15:19:22;16.90;64.60
15156;DHT22;7678;50.058;8.306;2023-05-02T15:21:50;16.90;66.20
15156;DHT22;7678;50.058;8.306;2023-05-02T15:24:19;16.80;65.20
15156;DHT22;7678;50.058;8.306;2023-05-02T15:26:48;17.10;65.20
15156;DHT22;7678;50.058;8.306;2023-05-02T15:29:16;17.10;65.80
15156;DHT22;7678;50.058;8.306;2023-05-02T15:31:46;17.20;63.90
15156;DHT22;7678;50.058;8.306;2023-05-02T15:34:15;16.90;61.90
15156;DHT22;7678;50.058;8.306;2023-05-02T15:36:46;16.80;63.00
15156;DHT22;7678;50.058;8.306;2023-05-02T15:39:21;17.20;63.00
15156;DHT22;7678;50.058;8.306;2023-05-02T15:41:54;16.90;61.10
15156;DHT22;7678;50.058;8.306;2023-05-02T15:44:25;17.20;65.60
15156;DHT22;7678;50.058;8.306;2023-05-02T15:46:53;16.70;64.10
15156;DHT22;7678;50.058;8.306;2023-05-02T15:49:23;16.60;63.70
15156;DHT22;7678;50.058;8.306;2023-05-02T15:51:57;16.70;64.00
15156;DHT22;7678;50.058;8.306;2023-05-02T15:54:29;16.60;65.90
15156;DHT22;7678;50.058;8.306;2023-05-02T15:56:58;16.50;63.20
15156;DHT22;7678;50.058;8.306;2023-05-02T15:59:28;16.80;63.70
15156;DHT22;7678;50.058;8.306;2023-05-02T16:01:57;16.50;61.70
15156;DHT22;7678;50.058;8.306;2023-05-02T16:04:26;16.40;61.90
15156;DHT22;7678;50.058;8.306;2023-05-02T16:06:54;16.40;62.90
15156;DHT22;7678;50.058;8.306;2023-05-02T16:09:23;16.20;62.40
15156;DHT22;7678;50.058;8.306;2023-05-02T16:11:52;16.30;62.30
15156;DHT22;7678;50.058;8.306;2023-05-02T16:14:20;16.60;61.80
15156;DHT22;7678;50.058;8.306;2023-05-02T16:16:49;16.70;62.20
15156;DHT22;7678;50.058;8.306;2023-05-02T16:19:20;16.20;63.30